createdAt,value
2023-04-06T00:00:46.571Z,1011.24
2023-04-06T00:01:46.382Z,1011.25
2023-04-06T00:02:46.371Z,1011.24
2023-04-06T00:03:46.407Z,1011.26
2023-04-06T00:04:46.312Z,1011.22
2023-04-06T00:05:46.303Z,1011.23
2023-04-06T00:06:46.317Z,1011.25
2023-04-06T00:07:46.289Z,1011.26
2023-04-06T00:08:46.288Z,1011.24
2023-04-06T00:09:46.263Z,1011.22
2023-04-06T00:10:46.254Z,1011.19
2023-04-06T00:11:46.229Z,1011.21
2023-04-06T00:12:46.259Z,1011.15
2023-04-06T00:13:46.230Z,1011.16
2023-04-06T00:14:46.214Z,1011.17
2023-04-06T00:15:46.182Z,1011.13
2023-04-06T00:16:46.275Z,1011.16
2023-04-06T00:17:46.219Z,1011.16
2023-04-06T00:18:46.184Z,1011.15
2023-04-06T00:19:46.148Z,1011.16
2023-04-06T00:20:46.170Z,1011.16
2023-04-06T00:21:46.146Z,1011.12
2023-04-06T00:22:46.116Z,1011.14
2023-04-06T00:23:46.125Z,1011.15
2023-04-06T00:24:46.093Z,1011.11
2023-04-06T00:25:46.092Z,1011.15
2023-04-06T00:26:46.076Z,1011.09
2023-04-06T00:27:46.045Z,1011.08
2023-04-06T00:28:46.042Z,1011.08
2023-04-06T00:29:46.051Z,1011.10
2023-04-06T00:30:46.017Z,1011.04
2023-04-06T00:31:46.060Z,1011.02
2023-04-06T00:32:46.032Z,1011.06
2023-04-06T00:33:46.013Z,1010.99
2023-04-06T00:34:46.001Z,1011.01
2023-04-06T00:35:46.053Z,1011.01
2023-04-06T00:36:45.964Z,1011.00
2023-04-06T00:37:45.943Z,1011.00
2023-04-06T00:38:45.998Z,1011.00
2023-04-06T00:39:45.921Z,1010.95
2023-04-06T00:40:45.952Z,1010.94
2023-04-06T00:41:45.899Z,1010.94
2023-04-06T00:42:45.913Z,1010.94
2023-04-06T00:43:45.873Z,1010.88
2023-04-06T00:44:45.869Z,1010.82
2023-04-06T00:45:45.934Z,1010.83
2023-04-06T00:46:45.868Z,1010.84
2023-04-06T00:47:45.898Z,1010.85
2023-04-06T00:48:45.822Z,1010.81
2023-04-06T00:49:45.803Z,1010.76
2023-04-06T00:50:45.815Z,1010.80
2023-04-06T00:51:45.788Z,1010.82
2023-04-06T00:52:45.781Z,1010.82
2023-04-06T00:53:45.763Z,1010.81
2023-04-06T00:54:45.757Z,1010.78
2023-04-06T00:55:45.772Z,1010.78
2023-04-06T00:56:45.733Z,1010.77
2023-04-06T00:57:45.714Z,1010.76
2023-04-06T00:58:45.713Z,1010.72
2023-04-06T00:59:45.706Z,1010.73
2023-04-06T01:00:45.688Z,1010.74
2023-04-06T01:01:45.793Z,1010.76
2023-04-06T01:02:45.680Z,1010.70
2023-04-06T01:03:45.650Z,1010.74
2023-04-06T01:04:45.639Z,1010.71
2023-04-06T01:05:45.725Z,1010.73
2023-04-06T01:06:45.654Z,1010.72
2023-04-06T01:07:45.752Z,1010.74
2023-04-06T01:08:45.623Z,1010.74
2023-04-06T01:09:45.583Z,1010.72
2023-04-06T01:10:45.576Z,1010.74
2023-04-06T01:11:45.605Z,1010.72
2023-04-06T01:12:45.560Z,1010.66
2023-04-06T01:13:45.543Z,1010.64
2023-04-06T01:14:45.549Z,1010.65
2023-04-06T01:15:45.604Z,1010.64
2023-04-06T01:16:45.531Z,1010.61
2023-04-06T01:17:45.619Z,1010.63
2023-04-06T01:18:45.495Z,1010.59
2023-04-06T01:19:45.472Z,1010.61
2023-04-06T01:20:45.468Z,1010.63
2023-04-06T01:21:45.469Z,1010.61
2023-04-06T01:22:45.440Z,1010.66
2023-04-06T01:23:45.429Z,1010.60
2023-04-06T01:24:45.424Z,1010.63
2023-04-06T01:25:45.402Z,1010.59
2023-04-06T01:26:45.436Z,1010.59
2023-04-06T01:27:45.381Z,1010.61
2023-04-06T01:28:45.374Z,1010.60
2023-04-06T01:29:45.357Z,1010.53
2023-04-06T01:30:45.352Z,1010.59
2023-04-06T01:31:45.400Z,1010.52
2023-04-06T01:32:45.412Z,1010.55
2023-04-06T01:33:45.318Z,1010.50
2023-04-06T01:34:45.313Z,1010.57
2023-04-06T01:35:45.343Z,1010.46
2023-04-06T01:36:45.307Z,1010.46
2023-04-06T01:37:45.285Z,1010.45
2023-04-06T01:38:45.281Z,1010.43
2023-04-06T01:39:45.247Z,1010.45
2023-04-06T01:40:45.260Z,1010.46
2023-04-06T01:41:45.223Z,1010.41
2023-04-06T01:42:45.217Z,1010.43
2023-04-06T01:43:45.215Z,1010.41
2023-04-06T01:44:45.212Z,1010.42
2023-04-06T01:45:45.169Z,1010.40
2023-04-06T01:46:45.264Z,1010.44
2023-04-06T01:47:45.167Z,1010.43
2023-04-06T01:48:45.147Z,1010.41
2023-04-06T01:49:45.156Z,1010.41
2023-04-06T01:50:45.117Z,1010.42
2023-04-06T01:51:45.107Z,1010.41
2023-04-06T01:52:45.098Z,1010.40
2023-04-06T01:53:45.087Z,1010.36
2023-04-06T01:54:45.105Z,1010.37
2023-04-06T01:55:45.073Z,1010.39
2023-04-06T01:56:45.052Z,1010.34
2023-04-06T01:57:45.037Z,1010.36
2023-04-06T01:58:45.033Z,1010.34
2023-04-06T01:59:45.028Z,1010.42
2023-04-06T02:00:45.034Z,1010.36
2023-04-06T02:01:45.013Z,1010.40
2023-04-06T02:02:45.010Z,1010.37
2023-04-06T02:03:44.972Z,1010.44
2023-04-06T02:04:44.979Z,1010.42
2023-04-06T02:05:44.954Z,1010.36
2023-04-06T02:06:44.953Z,1010.39
2023-04-06T02:07:44.930Z,1010.44
2023-04-06T02:08:44.933Z,1010.39
2023-04-06T02:09:44.935Z,1010.41
2023-04-06T02:10:44.893Z,1010.42
2023-04-06T02:11:44.885Z,1010.41
2023-04-06T02:12:44.878Z,1010.37
2023-04-06T02:13:44.877Z,1010.38
2023-04-06T02:14:44.882Z,1010.33
2023-04-06T02:15:44.841Z,1010.35
2023-04-06T02:16:44.863Z,1010.36
2023-04-06T02:17:44.860Z,1010.31
2023-04-06T02:18:44.831Z,1010.33
2023-04-06T02:19:44.821Z,1010.32
2023-04-06T02:20:44.788Z,1010.31
2023-04-06T02:21:44.770Z,1010.30
2023-04-06T02:22:44.784Z,1010.31
2023-04-06T02:23:44.761Z,1010.34
2023-04-06T02:24:44.765Z,1010.31
2023-04-06T02:25:44.781Z,1010.29
2023-04-06T02:26:44.718Z,1010.30
2023-04-06T02:27:44.706Z,1010.31
2023-04-06T02:28:44.717Z,1010.30
2023-04-06T02:29:44.704Z,1010.28
2023-04-06T02:30:44.678Z,1010.27
2023-04-06T02:31:44.720Z,1010.24
2023-04-06T02:32:44.689Z,1010.25
2023-04-06T02:33:44.640Z,1010.27
2023-04-06T02:34:44.644Z,1010.22
2023-04-06T02:35:44.722Z,1010.23
2023-04-06T02:36:44.613Z,1010.20
2023-04-06T02:37:44.609Z,1010.23
2023-04-06T02:38:44.600Z,1010.21
2023-04-06T02:39:44.595Z,1010.23
2023-04-06T02:40:44.565Z,1010.21
2023-04-06T02:41:44.554Z,1010.21
2023-04-06T02:42:44.540Z,1010.22
2023-04-06T02:43:44.533Z,1010.19
2023-04-06T02:44:44.542Z,1010.19
2023-04-06T02:45:44.524Z,1010.21
2023-04-06T02:46:44.507Z,1010.20
2023-04-06T02:47:44.581Z,1010.23
2023-04-06T02:48:44.467Z,1010.18
2023-04-06T02:49:45.487Z,1010.21
2023-04-06T02:50:44.460Z,1010.20
2023-04-06T02:51:44.444Z,1010.16
2023-04-06T02:52:44.434Z,1010.18
2023-04-06T02:53:44.416Z,1010.20
2023-04-06T02:54:44.449Z,1010.16
2023-04-06T02:55:44.415Z,1010.17
2023-04-06T02:56:44.386Z,1010.13
2023-04-06T02:57:44.378Z,1010.17
2023-04-06T02:58:44.364Z,1010.13
2023-04-06T02:59:44.437Z,1010.10
2023-04-06T03:00:44.348Z,1010.14
2023-04-06T03:01:44.405Z,1010.10
2023-04-06T03:02:44.421Z,1010.10
2023-04-06T03:03:44.445Z,1010.14
2023-04-06T03:04:44.328Z,1010.13
2023-04-06T03:05:44.288Z,1010.14
2023-04-06T03:06:44.273Z,1010.12
2023-04-06T03:07:44.262Z,1010.16
2023-04-06T03:08:44.248Z,1010.11
2023-04-06T03:09:44.260Z,1010.13
2023-04-06T03:10:44.243Z,1010.09
2023-04-06T03:11:44.214Z,1010.13
2023-04-06T03:12:44.220Z,1010.06
2023-04-06T03:13:44.194Z,1010.09
2023-04-06T03:14:44.207Z,1010.07
2023-04-06T03:15:44.199Z,1010.08
2023-04-06T03:16:44.161Z,1010.12
2023-04-06T03:17:44.197Z,1010.08
2023-04-06T03:18:44.145Z,1010.10
2023-04-06T03:19:44.146Z,1010.06
2023-04-06T03:20:44.134Z,1010.06
2023-04-06T03:21:44.118Z,1010.02
2023-04-06T03:22:44.090Z,1010.02
2023-04-06T03:23:44.086Z,1010.03
2023-04-06T03:24:44.088Z,1010.09
2023-04-06T03:25:44.053Z,1010.12
2023-04-06T03:26:44.044Z,1010.11
2023-04-06T03:27:44.039Z,1010.11
2023-04-06T03:28:44.022Z,1010.12
2023-04-06T03:29:44.039Z,1010.11
2023-04-06T03:30:43.999Z,1010.15
2023-04-06T03:31:44.116Z,1010.16
2023-04-06T03:32:44.029Z,1010.12
2023-04-06T03:33:43.977Z,1010.07
2023-04-06T03:34:43.977Z,1010.13
2023-04-06T03:35:43.975Z,1010.15
2023-04-06T03:36:43.930Z,1010.13
2023-04-06T03:37:43.920Z,1010.12
2023-04-06T03:38:43.916Z,1010.14
2023-04-06T03:39:43.924Z,1010.11
2023-04-06T03:40:43.893Z,1010.10
2023-04-06T03:41:43.880Z,1010.16
2023-04-06T03:42:43.872Z,1010.10
2023-04-06T03:43:43.877Z,1010.11
2023-04-06T03:44:43.913Z,1010.12
2023-04-06T03:45:43.835Z,1010.11
2023-04-06T03:46:43.875Z,1010.11
2023-04-06T03:47:43.824Z,1010.09
2023-04-06T03:48:43.803Z,1010.09
2023-04-06T03:49:43.808Z,1010.09
2023-04-06T03:50:43.781Z,1010.05
2023-04-06T03:51:43.773Z,1010.07
2023-04-06T03:52:43.744Z,1010.03
2023-04-06T03:53:43.740Z,1010.06
2023-04-06T03:54:43.754Z,1010.04
2023-04-06T03:55:43.715Z,1010.02
2023-04-06T03:56:43.698Z,1010.06
2023-04-06T03:57:43.693Z,1010.01
2023-04-06T03:58:43.674Z,1010.04
2023-04-06T03:59:43.734Z,1010.06
2023-04-06T04:00:43.653Z,1010.04
2023-04-06T04:01:43.696Z,1010.06
2023-04-06T04:02:43.755Z,1010.08
2023-04-06T04:03:43.743Z,1010.05
2023-04-06T04:04:43.666Z,1010.09
2023-04-06T04:05:43.607Z,1010.08
2023-04-06T04:06:43.635Z,1010.04
2023-04-06T04:07:43.583Z,1010.06
2023-04-06T04:08:43.571Z,1010.09
2023-04-06T04:09:43.581Z,1010.11
2023-04-06T04:10:43.541Z,1010.09
2023-04-06T04:11:43.538Z,1010.10
2023-04-06T04:12:43.529Z,1010.08
2023-04-06T04:13:43.513Z,1010.10
2023-04-06T04:14:43.523Z,1010.11
2023-04-06T04:15:43.516Z,1010.12
2023-04-06T04:16:43.562Z,1010.12
2023-04-06T04:17:44.331Z,1010.13
2023-04-06T04:18:43.447Z,1010.20
2023-04-06T04:19:43.481Z,1010.20
2023-04-06T04:20:43.436Z,1010.14
2023-04-06T04:21:43.424Z,1010.16
2023-04-06T04:22:43.416Z,1010.09
2023-04-06T04:23:43.415Z,1010.12
2023-04-06T04:24:43.400Z,1010.14
2023-04-06T04:25:43.387Z,1010.16
2023-04-06T04:26:43.377Z,1010.17
2023-04-06T04:27:43.385Z,1010.10
2023-04-06T04:28:43.341Z,1010.15
2023-04-06T04:29:43.361Z,1010.17
2023-04-06T04:30:43.337Z,1010.17
2023-04-06T04:31:43.364Z,1010.14
2023-04-06T04:32:43.323Z,1010.25
2023-04-06T04:33:43.300Z,1010.10
2023-04-06T04:34:43.302Z,1010.11
2023-04-06T04:35:43.308Z,1010.17
2023-04-06T04:36:43.281Z,1010.10
2023-04-06T04:37:43.277Z,1010.09
2023-04-06T04:38:43.238Z,1010.11
2023-04-06T04:39:43.257Z,1010.12
2023-04-06T04:40:43.214Z,1010.09
2023-04-06T04:41:43.221Z,1010.06
2023-04-06T04:42:43.206Z,1010.04
2023-04-06T04:43:43.198Z,1010.07
2023-04-06T04:44:43.199Z,1010.08
2023-04-06T04:45:43.185Z,1010.07
2023-04-06T04:46:43.157Z,1010.06
2023-04-06T04:47:43.194Z,1010.05
2023-04-06T04:48:43.134Z,1010.10
2023-04-06T04:49:43.162Z,1010.07
2023-04-06T04:50:43.109Z,1010.04
2023-04-06T04:51:43.119Z,1010.03
2023-04-06T04:52:43.098Z,1010.01
2023-04-06T04:53:43.077Z,1010.02
2023-04-06T04:54:43.090Z,1010.00
2023-04-06T04:55:43.059Z,1010.05
2023-04-06T04:56:43.060Z,1010.04
2023-04-06T04:57:43.076Z,1010.01
2023-04-06T04:58:43.036Z,1010.03
2023-04-06T04:59:43.036Z,1010.03
2023-04-06T05:00:43.003Z,1010.01
2023-04-06T05:01:54.156Z,1010.04
2023-04-06T05:02:43.127Z,1010.07
2023-04-06T05:03:43.127Z,1010.06
2023-04-06T05:04:42.982Z,1010.07
2023-04-06T05:05:42.946Z,1010.06
2023-04-06T05:06:42.934Z,1010.04
2023-04-06T05:07:42.933Z,1010.01
2023-04-06T05:08:42.927Z,1010.01
2023-04-06T05:09:42.926Z,1010.06
2023-04-06T05:10:42.887Z,1010.00
2023-04-06T05:11:42.891Z,1010.03
2023-04-06T05:12:42.866Z,1010.02
2023-04-06T05:13:42.866Z,1010.01
2023-04-06T05:14:42.869Z,1010.05
2023-04-06T05:15:42.863Z,1010.04
2023-04-06T05:16:42.829Z,1010.02
2023-04-06T05:17:42.890Z,1010.04
2023-04-06T05:18:42.804Z,1010.03
2023-04-06T05:19:42.808Z,1010.05
2023-04-06T05:20:42.786Z,1010.06
2023-04-06T05:21:42.779Z,1009.99
2023-04-06T05:22:42.758Z,1010.04
2023-04-06T05:23:42.753Z,1010.07
2023-04-06T05:24:42.759Z,1010.05
2023-04-06T05:25:42.721Z,1010.04
2023-04-06T05:26:42.718Z,1010.10
2023-04-06T05:27:42.714Z,1010.06
2023-04-06T05:28:42.686Z,1010.11
2023-04-06T05:29:42.701Z,1010.05
2023-04-06T05:30:42.663Z,1010.07
2023-04-06T05:31:42.793Z,1010.00
2023-04-06T05:32:42.659Z,1010.02
2023-04-06T05:33:42.639Z,1010.01
2023-04-06T05:34:42.699Z,1010.00
2023-04-06T05:35:42.655Z,1010.00
2023-04-06T05:36:42.618Z,1010.00
2023-04-06T05:37:42.593Z,1010.00
2023-04-06T05:38:42.614Z,1009.99
2023-04-06T05:39:42.592Z,1009.97
2023-04-06T05:40:42.569Z,1009.97
2023-04-06T05:41:42.540Z,1010.01
2023-04-06T05:42:42.523Z,1009.99
2023-04-06T05:43:42.524Z,1009.99
2023-04-06T05:44:42.545Z,1009.97
2023-04-06T05:45:42.514Z,1009.94
2023-04-06T05:46:42.537Z,1009.92
2023-04-06T05:47:42.516Z,1009.96
2023-04-06T05:48:42.493Z,1009.96
2023-04-06T05:49:42.505Z,1009.95
2023-04-06T05:50:42.455Z,1009.96
2023-04-06T05:51:42.434Z,1009.94
2023-04-06T05:52:42.410Z,1009.96
2023-04-06T05:53:42.408Z,1009.93
2023-04-06T05:54:42.410Z,1009.98
2023-04-06T05:55:42.401Z,1009.98
2023-04-06T05:56:42.375Z,1009.93
2023-04-06T05:57:42.373Z,1009.98
2023-04-06T05:58:42.351Z,1009.97
2023-04-06T05:59:42.480Z,1009.96
2023-04-06T06:00:42.319Z,1010.01
2023-04-06T06:01:42.318Z,1009.98
2023-04-06T06:02:42.314Z,1009.97
2023-04-06T06:03:42.311Z,1009.99
2023-04-06T06:04:42.314Z,1010.00
2023-04-06T06:05:42.266Z,1010.01
2023-04-06T06:06:42.262Z,1010.01
2023-04-06T06:07:42.243Z,1010.01
2023-04-06T06:08:42.227Z,1009.99
2023-04-06T06:09:42.240Z,1010.01
2023-04-06T06:10:42.209Z,1009.97
2023-04-06T06:11:42.221Z,1009.95
2023-04-06T06:12:42.191Z,1009.98
2023-04-06T06:13:42.198Z,1009.99
2023-04-06T06:14:42.198Z,1009.98
2023-04-06T06:15:42.169Z,1009.97
2023-04-06T06:16:42.186Z,1009.93
2023-04-06T06:17:42.178Z,1009.98
2023-04-06T06:18:42.133Z,1009.96
2023-04-06T06:19:42.131Z,1009.94
2023-04-06T06:20:42.092Z,1009.98
2023-04-06T06:21:42.092Z,1009.91
2023-04-06T06:22:42.080Z,1009.87
2023-04-06T06:23:42.099Z,1009.89
2023-04-06T06:24:42.077Z,1009.93
2023-04-06T06:25:42.060Z,1009.84
2023-04-06T06:26:42.049Z,1009.86
2023-04-06T06:27:42.053Z,1009.86
2023-04-06T06:28:42.049Z,1009.91
2023-04-06T06:29:42.019Z,1009.90
2023-04-06T06:30:42.005Z,1009.92
2023-04-06T06:31:42.034Z,1009.91
2023-04-06T06:32:42.009Z,1009.92
2023-04-06T06:33:41.964Z,1009.91
2023-04-06T06:34:41.964Z,1009.95
2023-04-06T06:35:41.959Z,1009.95
2023-04-06T06:36:41.927Z,1009.94
2023-04-06T06:37:41.914Z,1009.94
2023-04-06T06:38:41.936Z,1009.98
2023-04-06T06:39:41.902Z,1009.92
2023-04-06T06:40:41.879Z,1009.98
2023-04-06T06:41:41.891Z,1009.95
2023-04-06T06:42:41.867Z,1009.99
2023-04-06T06:43:41.846Z,1010.00
2023-04-06T06:44:41.858Z,1010.00
2023-04-06T06:45:41.894Z,1009.97
2023-04-06T06:46:41.839Z,1009.95
2023-04-06T06:47:41.842Z,1009.98
2023-04-06T06:48:41.796Z,1009.94
2023-04-06T06:49:41.795Z,1009.97
2023-04-06T06:50:41.793Z,1009.92
2023-04-06T06:51:41.753Z,1009.89
2023-04-06T06:52:41.752Z,1009.93
2023-04-06T06:53:41.747Z,1009.91
2023-04-06T06:54:41.753Z,1009.88
2023-04-06T06:55:41.757Z,1009.87
2023-04-06T06:56:41.724Z,1009.86
2023-04-06T06:57:41.686Z,1009.88
2023-04-06T06:58:41.774Z,1009.86
2023-04-06T06:59:41.711Z,1009.88
2023-04-06T07:00:41.678Z,1009.83
2023-04-06T07:01:41.686Z,1009.84
2023-04-06T07:02:41.692Z,1009.85
2023-04-06T07:03:41.620Z,1009.83
2023-04-06T07:04:41.646Z,1009.84
2023-04-06T07:05:41.641Z,1009.82
2023-04-06T07:06:41.592Z,1009.83
2023-04-06T07:07:41.583Z,1009.85
2023-04-06T07:08:41.596Z,1009.83
2023-04-06T07:09:41.642Z,1009.86
2023-04-06T07:10:41.598Z,1009.80
2023-04-06T07:11:41.525Z,1009.88
2023-04-06T07:12:41.520Z,1009.84
2023-04-06T07:13:41.511Z,1009.81
2023-04-06T07:14:41.522Z,1009.82
2023-04-06T07:15:41.512Z,1009.84
2023-04-06T07:16:41.556Z,1009.81
2023-04-06T07:17:41.491Z,1009.83
2023-04-06T07:18:41.450Z,1009.77
2023-04-06T07:19:41.452Z,1009.77
2023-04-06T07:20:41.453Z,1009.80
2023-04-06T07:21:41.436Z,1009.76
2023-04-06T07:22:41.443Z,1009.80
2023-04-06T07:23:41.398Z,1009.80
2023-04-06T07:24:41.432Z,1009.81
2023-04-06T07:25:41.399Z,1009.75
2023-04-06T07:26:41.379Z,1009.86
2023-04-06T07:27:41.346Z,1009.78
2023-04-06T07:28:41.360Z,1009.78
2023-04-06T07:29:41.346Z,1009.78
2023-04-06T07:30:41.320Z,1009.79
2023-04-06T07:31:41.326Z,1009.78
2023-04-06T07:32:41.356Z,1009.76
2023-04-06T07:33:41.278Z,1009.76
2023-04-06T07:34:41.297Z,1009.74
2023-04-06T07:35:41.376Z,1009.74
2023-04-06T07:36:41.246Z,1009.75
2023-04-06T07:37:41.241Z,1009.72
2023-04-06T07:38:41.220Z,1009.72
2023-04-06T07:39:41.243Z,1009.67
2023-04-06T07:40:41.215Z,1009.69
2023-04-06T07:41:41.197Z,1009.70
2023-04-06T07:42:41.179Z,1009.69
2023-04-06T07:43:41.173Z,1009.74
2023-04-06T07:44:41.168Z,1009.71
2023-04-06T07:45:41.221Z,1009.69
2023-04-06T07:46:41.140Z,1009.66
2023-04-06T07:47:41.160Z,1009.66
2023-04-06T07:48:41.114Z,1009.62
2023-04-06T07:49:41.134Z,1009.67
2023-04-06T07:50:41.084Z,1009.61
2023-04-06T07:51:41.077Z,1009.62
2023-04-06T07:52:41.067Z,1009.59
2023-04-06T07:53:41.067Z,1009.64
2023-04-06T07:54:41.068Z,1009.62
2023-04-06T07:55:41.049Z,1009.64
2023-04-06T07:56:41.014Z,1009.61
2023-04-06T07:57:41.012Z,1009.63
2023-04-06T07:58:40.994Z,1009.56
2023-04-06T07:59:41.054Z,1009.64
2023-04-06T08:00:40.992Z,1009.59
2023-04-06T08:01:40.970Z,1009.60
2023-04-06T08:02:41.023Z,1009.59
2023-04-06T08:03:41.096Z,1009.57
2023-04-06T08:04:41.320Z,1009.62
2023-04-06T08:05:40.921Z,1009.60
2023-04-06T08:06:40.911Z,1009.59
2023-04-06T08:07:40.920Z,1009.58
2023-04-06T08:08:40.892Z,1009.61
2023-04-06T08:09:40.887Z,1009.59
2023-04-06T08:10:40.862Z,1009.60
2023-04-06T08:11:40.880Z,1009.59
2023-04-06T08:12:40.840Z,1009.60
2023-04-06T08:13:40.829Z,1009.61
2023-04-06T08:14:40.831Z,1009.61
2023-04-06T08:15:40.842Z,1009.63
2023-04-06T08:16:40.789Z,1009.58
2023-04-06T08:17:40.820Z,1009.58
2023-04-06T08:18:40.765Z,1009.56
2023-04-06T08:19:40.768Z,1009.58
2023-04-06T08:20:40.778Z,1009.56
2023-04-06T08:21:40.735Z,1009.53
2023-04-06T08:22:40.733Z,1009.58
2023-04-06T08:23:40.709Z,1009.64
2023-04-06T08:24:40.695Z,1009.57
2023-04-06T08:25:40.725Z,1009.62
2023-04-06T08:26:40.698Z,1009.60
2023-04-06T08:27:40.680Z,1009.60
2023-04-06T08:28:40.665Z,1009.60
2023-04-06T08:29:40.642Z,1009.64
2023-04-06T08:30:40.633Z,1009.62
2023-04-06T08:31:40.722Z,1009.62
2023-04-06T08:32:40.638Z,1009.61
2023-04-06T08:33:40.602Z,1009.60
2023-04-06T08:34:40.589Z,1009.59
2023-04-06T08:35:40.634Z,1009.56
2023-04-06T08:36:40.564Z,1009.59
2023-04-06T08:37:40.588Z,1009.57
2023-04-06T08:38:40.549Z,1009.54
2023-04-06T08:39:40.535Z,1009.55
2023-04-06T08:40:40.520Z,1009.56
2023-04-06T08:41:40.515Z,1009.53
2023-04-06T08:42:40.527Z,1009.54
2023-04-06T08:43:40.494Z,1009.56
2023-04-06T08:44:40.472Z,1009.54
2023-04-06T08:45:40.464Z,1009.55
2023-04-06T08:46:40.488Z,1009.47
2023-04-06T08:47:40.477Z,1009.50
2023-04-06T08:48:40.455Z,1009.45
2023-04-06T08:49:40.443Z,1009.49
2023-04-06T08:50:40.404Z,1009.52
2023-04-06T08:51:40.403Z,1009.48
2023-04-06T08:52:40.388Z,1009.51
2023-04-06T08:53:40.398Z,1009.54
2023-04-06T08:54:40.372Z,1009.53
2023-04-06T08:55:40.350Z,1009.50
2023-04-06T08:56:40.332Z,1009.55
2023-04-06T08:57:40.342Z,1009.46
2023-04-06T08:58:40.346Z,1009.50
2023-04-06T08:59:40.392Z,1009.51
2023-04-06T09:00:40.293Z,1009.52
2023-04-06T09:01:40.306Z,1009.48
2023-04-06T09:02:40.315Z,1009.49
2023-04-06T09:03:40.344Z,1009.44
2023-04-06T09:04:40.292Z,1009.45
2023-04-06T09:05:40.242Z,1009.44
2023-04-06T09:06:40.218Z,1009.43
2023-04-06T09:07:40.215Z,1009.40
2023-04-06T09:08:40.198Z,1009.47
2023-04-06T09:09:40.643Z,1009.39
2023-04-06T09:10:40.175Z,1009.42
2023-04-06T09:11:40.165Z,1009.41
2023-04-06T09:12:40.153Z,1009.43
2023-04-06T09:13:40.139Z,1009.42
2023-04-06T09:14:40.137Z,1009.38
2023-04-06T09:15:40.139Z,1009.41
2023-04-06T09:16:40.403Z,1009.39
2023-04-06T09:17:40.114Z,1009.35
2023-04-06T09:18:40.077Z,1009.37
2023-04-06T09:19:40.083Z,1009.37
2023-04-06T09:20:40.086Z,1009.37
2023-04-06T09:21:40.060Z,1009.35
2023-04-06T09:22:40.039Z,1009.34
2023-04-06T09:23:40.099Z,1009.28
2023-04-06T09:24:40.015Z,1009.26
2023-04-06T09:25:40.010Z,1009.30
2023-04-06T09:26:40.019Z,1009.31
2023-04-06T09:27:40.001Z,1009.30
2023-04-06T09:28:39.971Z,1009.28
2023-04-06T09:29:39.962Z,1009.27
2023-04-06T09:30:39.946Z,1009.28
2023-04-06T09:31:40.071Z,1009.23
2023-04-06T09:32:39.984Z,1009.22
2023-04-06T09:33:39.923Z,1009.24
2023-04-06T09:34:39.916Z,1009.19
2023-04-06T09:35:39.901Z,1009.22
2023-04-06T09:36:39.897Z,1009.19
2023-04-06T09:37:39.892Z,1009.20
2023-04-06T09:38:39.864Z,1009.26
2023-04-06T09:39:39.851Z,1009.21
2023-04-06T09:40:45.597Z,1009.22
2023-04-06T09:41:39.844Z,1009.21
2023-04-06T09:42:39.847Z,1009.18
2023-04-06T09:43:39.824Z,1009.17
2023-04-06T09:44:39.792Z,1009.20
2023-04-06T09:45:39.786Z,1009.15
2023-04-06T09:46:51.193Z,1009.14
2023-04-06T09:47:39.833Z,1009.20
2023-04-06T09:48:39.818Z,1009.17
2023-04-06T09:49:39.738Z,1009.11
2023-04-06T09:50:39.719Z,1009.12
2023-04-06T09:51:39.954Z,1009.09
2023-04-06T09:52:39.705Z,1009.09
2023-04-06T09:53:39.724Z,1009.09
2023-04-06T09:54:39.676Z,1009.10
2023-04-06T09:55:39.668Z,1009.10
2023-04-06T09:56:39.658Z,1009.12
2023-04-06T09:57:39.645Z,1009.12
2023-04-06T09:58:39.719Z,1009.08
2023-04-06T09:59:39.659Z,1009.12
2023-04-06T10:00:39.656Z,1009.08
2023-04-06T10:01:39.604Z,1009.07
2023-04-06T10:02:39.643Z,1009.07
2023-04-06T10:03:39.622Z,1009.10
2023-04-06T10:04:39.581Z,1009.12
2023-04-06T10:05:39.553Z,1009.10
2023-04-06T10:06:39.539Z,1009.07
2023-04-06T10:07:49.449Z,1009.05
2023-04-06T10:08:39.519Z,1009.08
2023-04-06T10:09:39.522Z,1009.02
2023-04-06T10:10:39.512Z,1009.01
2023-04-06T10:11:39.501Z,1009.03
2023-04-06T10:12:39.468Z,1009.06
2023-04-06T10:13:39.461Z,1009.03
2023-04-06T10:14:39.460Z,1009.00
2023-04-06T10:15:39.445Z,1009.03
2023-04-06T10:16:39.467Z,1009.05
2023-04-06T10:17:39.452Z,1009.02
2023-04-06T10:18:39.403Z,1009.04
2023-04-06T10:19:39.404Z,1008.99
2023-04-06T10:20:39.370Z,1009.05
2023-04-06T10:21:39.363Z,1009.08
2023-04-06T10:22:39.347Z,1009.10
2023-04-06T10:23:39.341Z,1009.05
2023-04-06T10:24:39.324Z,1009.02
2023-04-06T10:25:39.338Z,1009.02
2023-04-06T10:26:39.325Z,1009.02
2023-04-06T10:27:39.305Z,1009.02
2023-04-06T10:28:39.284Z,1009.01
2023-04-06T10:29:39.291Z,1009.04
2023-04-06T10:30:39.264Z,1009.02
2023-04-06T10:31:39.308Z,1009.03
2023-04-06T10:32:39.243Z,1009.00
2023-04-06T10:33:39.236Z,1009.03
2023-04-06T10:34:39.232Z,1008.98
2023-04-06T10:35:39.239Z,1008.96
2023-04-06T10:36:39.236Z,1008.95
2023-04-06T10:37:39.196Z,1008.94
2023-04-06T10:38:41.346Z,1008.93
2023-04-06T10:39:39.166Z,1008.93
2023-04-06T10:40:39.163Z,1008.97
2023-04-06T10:41:39.146Z,1008.93
2023-04-06T10:42:39.161Z,1009.00
2023-04-06T10:43:39.157Z,1009.00
2023-04-06T10:44:39.110Z,1008.99
2023-04-06T10:45:39.139Z,1008.96
2023-04-06T10:46:39.085Z,1008.96
2023-04-06T10:47:39.081Z,1008.94
2023-04-06T10:48:39.135Z,1008.95
2023-04-06T10:49:39.067Z,1008.93
2023-04-06T10:50:39.049Z,1008.96
2023-04-06T10:51:39.039Z,1008.91
2023-04-06T10:52:39.020Z,1008.94
2023-04-06T10:53:39.044Z,1008.90
2023-04-06T10:54:39.009Z,1008.94
2023-04-06T10:55:38.995Z,1008.91
2023-04-06T10:56:38.977Z,1008.88
2023-04-06T10:57:38.971Z,1008.87
2023-04-06T10:58:39.121Z,1008.84
2023-04-06T10:59:39.053Z,1008.84
2023-04-06T11:00:49.642Z,1008.87
2023-04-06T11:01:38.945Z,1008.86
2023-04-06T11:02:38.963Z,1008.84
2023-04-06T11:03:38.917Z,1008.82
2023-04-06T11:04:38.969Z,1008.84
2023-04-06T11:05:38.877Z,1008.82
2023-04-06T11:06:38.857Z,1008.81
2023-04-06T11:07:38.862Z,1008.77
2023-04-06T11:08:39.145Z,1008.76
2023-04-06T11:09:38.858Z,1008.77
2023-04-06T11:10:38.807Z,1008.74
2023-04-06T11:11:38.805Z,1008.75
2023-04-06T11:12:38.798Z,1008.79
2023-04-06T11:13:38.780Z,1008.74
2023-04-06T11:14:38.767Z,1008.76
2023-04-06T11:15:39.535Z,1008.79
2023-04-06T11:16:38.750Z,1008.79
2023-04-06T11:17:38.791Z,1008.77
2023-04-06T11:18:38.921Z,1008.74
2023-04-06T11:19:38.708Z,1008.74
2023-04-06T11:20:38.745Z,1008.72
2023-04-06T11:21:38.690Z,1008.71
2023-04-06T11:22:38.677Z,1008.77
2023-04-06T11:23:38.663Z,1008.75
2023-04-06T11:24:38.649Z,1008.76
2023-04-06T11:25:38.816Z,1008.76
2023-04-06T11:26:38.646Z,1008.70
2023-04-06T11:27:38.628Z,1008.78
2023-04-06T11:28:38.753Z,1008.75
2023-04-06T11:29:38.596Z,1008.72
2023-04-06T11:30:38.590Z,1008.74
2023-04-06T11:31:38.603Z,1008.73
2023-04-06T11:32:38.611Z,1008.71
2023-04-06T11:33:38.567Z,1008.66
2023-04-06T11:34:38.579Z,1008.63
2023-04-06T11:35:38.564Z,1008.61
2023-04-06T11:36:38.518Z,1008.67
2023-04-06T11:37:38.541Z,1008.62
2023-04-06T11:38:38.675Z,1008.57
2023-04-06T11:39:38.490Z,1008.61
2023-04-06T11:40:38.466Z,1008.61
2023-04-06T11:41:38.462Z,1008.62
2023-04-06T11:42:38.455Z,1008.58
2023-04-06T11:43:38.484Z,1008.60
2023-04-06T11:44:38.433Z,1008.56
2023-04-06T11:45:38.425Z,1008.51
2023-04-06T11:46:38.449Z,1008.50
2023-04-06T11:47:38.424Z,1008.49
2023-04-06T11:48:38.619Z,1008.49
2023-04-06T11:49:38.385Z,1008.52
2023-04-06T11:50:38.366Z,1008.55
2023-04-06T11:51:38.357Z,1008.51
2023-04-06T11:52:38.345Z,1008.51
2023-04-06T11:53:38.343Z,1008.52
2023-04-06T11:54:38.350Z,1008.50
2023-04-06T11:55:38.316Z,1008.49
2023-04-06T11:56:38.287Z,1008.52
2023-04-06T11:57:38.279Z,1008.51
2023-04-06T11:58:38.532Z,1008.55
2023-04-06T11:59:38.268Z,1008.49
2023-04-06T12:00:38.262Z,1008.53
2023-04-06T12:01:39.293Z,1008.44
2023-04-06T12:02:38.322Z,1008.47
2023-04-06T12:03:38.331Z,1008.52
2023-04-06T12:04:38.299Z,1008.53
2023-04-06T12:05:38.221Z,1008.44